Time;durP1;ratioP1;P1;durP2;ratioP2;P2;SDS_P1;SDS_P2;PMS_P1;PMS_P2;Temp;Humidity;BMP_temperature;BMP_pressure;BME280_temperature;BME280_humidity;BME280_pressure;Samples;Min_cycle;Max_cycle;Signal;HPM_P1;HPM_P2
2022/05/21 00:00:22;;;;;;;4.00;1.80;;;;;;;20.80;62.72;100849.72;4970054;28;20435;-73
2022/05/21 00:02:49;;;;;;;2.22;2.10;;;;;;;20.75;62.68;100853.38;4972492;28;20767;-72
2022/05/21 00:05:16;;;;;;;2.25;1.95;;;;;;;20.79;62.31;100851.66;4972256;28;20391;-73
2022/05/21 00:07:42;;;;;;;2.58;2.03;;;;;;;20.90;61.74;100855.88;4968688;28;20415;-73
2022/05/21 00:10:08;;;;;;;1.75;1.60;;;;;;;20.81;61.99;100865.97;4972004;28;20760;-73
2022/05/21 00:12:34;;;;;;;1.95;1.75;;;;;;;20.80;61.87;100871.75;4972538;28;20399;-72
2022/05/21 00:14:59;;;;;;;2.10;2.00;;;;;;;20.68;61.78;100886.81;4972428;28;20780;-72
2022/05/21 00:17:24;;;;;;;2.10;1.90;;;;;;;20.49;62.28;100883.28;4970852;28;20403;-72
2022/05/21 00:19:49;;;;;;;1.90;1.80;;;;;;;20.48;62.35;100895.41;4972141;28;20985;-73
2022/05/21 00:22:15;;;;;;;2.47;2.00;;;;;;;20.34;62.24;100899.25;4973678;28;20409;-72
2022/05/21 00:24:40;;;;;;;1.80;1.70;;;;;;;20.37;62.18;100895.88;4975687;28;20484;-73
2022/05/21 00:27:07;;;;;;;3.40;2.07;;;;;;;20.24;62.30;100902.94;4974122;28;20470;-72
2022/05/21 00:29:32;;;;;;;3.00;2.22;;;;;;;20.34;61.98;100907.50;4975528;28;20419;-72
2022/05/21 00:31:58;;;;;;;2.70;1.97;;;;;;;20.48;61.24;100911.94;4975441;28;20397;-72
2022/05/21 00:34:24;;;;;;;1.70;1.60;;;;;;;20.42;61.25;100915.88;4974211;28;20423;-72
2022/05/21 00:36:49;;;;;;;5.00;2.30;;;;;;;20.41;60.66;100925.28;4974497;28;20776;-72
2022/05/21 00:39:15;;;;;;;2.50;2.30;;;;;;;20.37;60.70;100927.00;4975451;28;20428;-72
2022/05/21 00:41:40;;;;;;;3.80;2.13;;;;;;;20.14;61.26;100934.19;4975557;28;20427;-72
2022/05/21 00:44:06;;;;;;;2.67;2.20;;;;;;;20.19;60.95;100931.34;4975225;28;20403;-72
2022/05/21 00:46:39;;;;;;;2.20;2.00;;;;;;;20.13;60.88;100939.97;4975455;28;20392;-72
2022/05/21 00:49:27;;;;;;;2.50;2.30;;;;;;;20.04;60.76;100939.00;4973182;28;20554;-72
2022/05/21 00:51:52;;;;;;;2.50;2.30;;;;;;;19.94;60.40;100950.97;4959998;28;20404;-72
2022/05/21 00:54:22;;;;;;;4.60;2.10;;;;;;;19.94;60.27;100945.47;4975422;28;20400;-72
2022/05/21 00:56:54;;;;;;;3.58;2.17;;;;;;;20.03;59.74;100937.34;4973753;28;20499;-73
2022/05/21 01:02:07;;;;;;;4.22;1.90;;;;;;;19.60;60.30;100937.34;4975181;28;20950;-73
2022/05/21 01:04:34;;;;;;;2.85;1.92;;;;;;;19.52;60.10;100949.00;4974885;28;20856;-72
2022/05/21 01:07:01;;;;;;;2.35;2.00;;;;;;;19.44;60.61;100941.38;4973790;28;20388;-73
2022/05/21 01:09:27;;;;;;;2.40;2.20;;;;;;;19.60;59.79;100948.34;4974788;28;20397;-72
2022/05/21 01:11:55;;;;;;;1.80;1.70;;;;;;;19.68;59.66;100949.63;4974990;28;20423;-72
2022/05/21 01:14:21;;;;;;;3.47;1.90;;;;;;;19.71;59.87;100951.81;4974772;28;20404;-72
2022/05/21 01:16:48;;;;;;;2.63;2.43;;;;;;;19.72;59.75;100961.69;4974838;28;20396;-73
2022/05/21 01:19:13;;;;;;;2.50;2.00;;;;;;;19.80;59.54;100962.97;4973173;28;20435;-73
2022/05/21 01:21:39;;;;;;;1.83;1.73;;;;;;;19.77;59.66;100963.56;4974834;28;20405;-73
2022/05/21 01:24:06;;;;;;;2.17;1.90;;;;;;;19.82;59.42;100963.50;4973455;28;20912;-73
2022/05/21 01:26:33;;;;;;;2.53;1.85;;;;;;;19.84;59.33;100964.00;4974904;28;20428;-73
2022/05/21 01:29:01;;;;;;;3.83;2.28;;;;;;;19.80;59.11;100972.03;4973409;28;20419;-73
2022/05/21 01:31:26;;;;;;;3.08;2.22;;;;;;;19.63;59.43;100969.75;4974145;28;20559;-72
2022/05/21 01:33:52;;;;;;;3.97;2.10;;;;;;;19.52;59.65;100973.75;4974190;28;20959;-73
2022/05/21 01:36:17;;;;;;;1.87;1.77;;;;;;;19.39;59.94;100979.91;4972985;28;20420;-72
2022/05/21 01:38:43;;;;;;;2.15;1.90;;;;;;;19.43;59.88;100975.47;4974568;28;20392;-72
2022/05/21 01:41:09;;;;;;;2.63;2.00;;;;;;;19.39;59.67;100973.59;4974468;28;20480;-72
2022/05/21 01:46:19;;;;;;;4.97;2.50;;;;;;;19.27;59.57;100976.72;4971491;28;20816;-73
2022/05/21 01:48:45;;;;;;;2.43;2.10;;;;;;;19.27;59.45;100979.47;4974162;28;20399;-72
2022/05/21 01:51:10;;;;;;;2.03;1.85;;;;;;;19.20;59.46;100975.44;4974388;28;20427;-73
2022/05/21 01:53:38;;;;;;;3.23;2.10;;;;;;;19.03;59.81;100986.84;4974062;28;20479;-72
2022/05/21 01:56:04;;;;;;;2.55;1.95;;;;;;;19.06;59.56;100984.34;4973118;28;20900;-72
2022/05/21 01:58:30;;;;;;;2.50;2.30;;;;;;;18.98;59.54;100990.44;4974396;28;20432;-72
2022/05/21 02:00:56;;;;;;;3.03;2.10;;;;;;;19.03;59.32;100998.63;4973917;28;20400;-73
2022/05/21 02:03:22;;;;;;;3.42;2.40;;;;;;;19.26;58.08;100999.81;4973898;28;20405;-73
2022/05/21 02:05:48;;;;;;;2.70;2.17;;;;;;;19.26;58.05;101010.81;4972001;28;20423;-72
2022/05/21 02:08:15;;;;;;;2.50;2.30;;;;;;;19.24;58.03;101010.25;4973689;28;20389;-72
2022/05/21 02:10:41;;;;;;;2.80;2.60;;;;;;;19.03;58.34;101020.59;4972307;28;20424;-72
2022/05/21 02:13:11;;;;;;;2.35;2.25;;;;;;;18.92;58.19;101024.56;4973714;28;20752;-74
2022/05/21 02:15:37;;;;;;;2.47;2.33;;;;;;;18.97;58.06;101023.69;4972492;28;20403;-73
2022/05/21 02:18:02;;;;;;;2.33;2.13;;;;;;;19.09;57.43;101027.72;4973858;28;20891;-73
2022/05/21 02:20:28;;;;;;;2.70;2.50;;;;;;;19.14;57.23;101035.91;4973792;28;20408;-73
2022/05/21 02:22:53;;;;;;;2.50;2.40;;;;;;;19.12;57.02;101031.81;4973262;28;20427;-73
2022/05/21 02:25:18;;;;;;;3.10;2.47;;;;;;;18.98;57.37;101030.81;4973635;28;20410;-73
2022/05/21 02:27:44;;;;;;;3.43;2.53;;;;;;;18.88;57.38;101023.47;4971752;28;20467;-73
2022/05/21 02:30:10;;;;;;;2.97;2.88;;;;;;;18.78;57.26;101019.97;4973610;28;20422;-72
2022/05/21 02:32:35;;;;;;;3.08;2.95;;;;;;;18.75;57.09;101037.03;4973299;28;20415;-73
2022/05/21 02:35:00;;;;;;;2.73;2.53;;;;;;;18.77;56.96;101029.34;4973213;28;20392;-73
2022/05/21 02:40:10;;;;;;;2.70;2.50;;;;;;;18.56;57.33;101029.47;4959297;28;20942;-72
2022/05/21 02:42:45;;;;;;;2.90;2.80;;;;;;;18.59;56.98;101025.34;4973192;28;20425;-72
2022/05/21 02:45:13;;;;;;;2.95;2.70;;;;;;;18.45;57.34;101029.78;4971477;28;20514;-72
2022/05/21 02:47:38;;;;;;;3.38;2.65;;;;;;;18.57;56.89;101035.78;4973317;28;20737;-72
2022/05/21 02:50:05;;;;;;;2.47;2.27;;;;;;;18.61;56.46;101028.59;4971756;28;20396;-72
2022/05/21 02:52:30;;;;;;;2.30;2.17;;;;;;;18.51;56.94;101037.72;4987916;28;20831;-72
2022/05/21 02:54:57;;;;;;;3.07;2.17;;;;;;;18.49;56.97;101039.91;4971995;28;20443;-72
2022/05/21 02:57:23;;;;;;;2.97;2.20;;;;;;;18.62;56.74;101046.72;4973045;28;20388;-73
2022/05/21 02:59:50;;;;;;;2.23;2.13;;;;;;;18.64;56.96;101045.34;4972871;28;20900;-72
2022/05/21 03:02:15;;;;;;;3.08;1.90;;;;;;;18.70;56.88;101045.31;4973064;28;20396;-73
2022/05/21 03:04:41;;;;;;;2.73;2.53;;;;;;;18.63;57.34;101053.88;4972082;28;20902;-73
2022/05/21 03:07:06;;;;;;;2.90;2.70;;;;;;;18.65;57.69;101049.72;4971471;28;20483;-72
2022/05/21 03:12:15;;;;;;;4.40;3.33;;;;;;;18.70;57.97;101048.88;4972640;28;20458;-73
2022/05/21 03:14:40;;;;;;;3.80;3.50;;;;;;;18.63;58.14;101045.63;4966785;28;20923;-72
2022/05/21 03:17:06;;;;;;;4.43;3.33;;;;;;;18.39;59.20;101047.38;4972706;28;20392;-72
2022/05/21 03:19:34;;;;;;;3.57;3.27;;;;;;;18.32;59.42;101049.59;4972731;28;20792;-73
2022/05/21 03:22:00;;;;;;;3.70;3.50;;;;;;;18.32;59.31;101061.41;4972582;28;20499;-72
2022/05/21 03:24:26;;;;;;;4.50;3.73;;;;;;;18.15;59.84;101056.25;4972803;28;21105;-72
2022/05/21 03:26:52;;;;;;;3.83;3.47;;;;;;;18.04;60.13;101051.09;4972720;28;20404;-72
2022/05/21 03:29:17;;;;;;;6.63;3.67;;;;;;;18.12;60.23;101069.72;4972650;28;20462;-72
2022/05/21 03:31:43;;;;;;;5.13;3.67;;;;;;;18.01;60.39;101065.38;4972611;28;20499;-72
2022/05/21 03:34:08;;;;;;;3.90;3.60;;;;;;;18.00;60.48;101070.03;4972146;28;20416;-73
2022/05/21 03:36:35;;;;;;;5.43;3.67;;;;;;;18.15;59.90;101063.66;4972491;28;20412;-73
2022/05/21 03:39:00;;;;;;;4.07;3.70;;;;;;;18.15;59.84;101075.47;4972411;28;20401;-73
2022/05/21 03:41:26;;;;;;;4.20;3.63;;;;;;;18.06;59.87;101068.91;4972580;28;20458;-72
2022/05/21 03:43:52;;;;;;;4.50;3.80;;;;;;;18.05;60.08;101075.50;4971942;28;20423;-72
2022/05/21 03:46:18;;;;;;;4.90;3.45;;;;;;;18.00;60.23;101074.69;4972588;28;20486;-72
2022/05/21 03:48:45;;;;;;;9.57;4.00;;;;;;;17.91;60.72;101077.22;4972407;28;20888;-72
2022/05/21 03:51:10;;;;;;;6.03;5.43;;;;;;;17.92;60.49;101067.03;4972277;28;20902;-73
2022/05/21 03:53:36;;;;;;;6.95;6.35;;;;;;;17.88;60.45;101064.03;4971220;28;20396;-72
2022/05/21 03:56:02;;;;;;;7.30;5.37;;;;;;;17.83;60.54;101063.22;4973323;28;21129;-73
2022/05/21 03:58:28;;;;;;;5.43;4.80;;;;;;;17.83;60.42;101060.47;4976040;28;20404;-72
2022/05/21 04:00:53;;;;;;;5.53;4.90;;;;;;;17.83;60.26;101063.22;4976308;28;20535;-72
2022/05/21 04:03:19;;;;;;;6.30;4.87;;;;;;;17.63;60.96;101059.44;4976153;28;20392;-72
2022/05/21 04:05:44;;;;;;;7.73;4.63;;;;;;;17.75;60.70;101061.06;4976116;28;20396;-72
2022/05/21 04:08:10;;;;;;;4.10;3.73;;;;;;;17.58;61.15;101067.66;4974508;28;20400;-72
2022/05/21 04:10:35;;;;;;;7.10;4.40;;;;;;;17.43;61.60;101070.38;4976155;28;20547;-72
2022/05/21 04:13:00;;;;;;;5.00;4.23;;;;;;;17.51;61.19;101066.28;4975797;28;20419;-72
2022/05/21 04:15:26;;;;;;;4.30;3.90;;;;;;;17.55;61.14;101067.38;4975355;28;20531;-72
2022/05/21 04:17:53;;;;;;;6.47;4.10;;;;;;;17.56;61.01;101072.59;4971404;28;20416;-72
2022/05/21 04:20:21;;;;;;;4.05;3.67;;;;;;;17.40;61.61;101078.34;4960067;28;20886;-72
2022/05/21 04:22:47;;;;;;;4.70;3.72;;;;;;;17.38;61.69;101084.09;4974515;28;20433;-72
2022/05/21 04:25:12;;;;;;;4.60;3.63;;;;;;;17.42;61.65;101084.38;4975405;28;20404;-72
2022/05/21 04:27:39;;;;;;;3.87;3.40;;;;;;;17.32;62.03;101079.69;4975771;28;20385;-72
2022/05/21 04:30:09;;;;;;;3.67;3.28;;;;;;;17.30;62.23;101084.66;4975548;28;20404;-72
2022/05/21 04:32:34;;;;;;;3.50;3.20;;;;;;;17.36;61.94;101082.72;4973118;28;20928;-73
2022/05/21 04:34:59;;;;;;;5.63;3.45;;;;;;;17.30;62.16;101086.56;4971857;28;20420;-72
2022/05/21 04:37:24;;;;;;;3.40;3.20;;;;;;;17.15;62.79;101087.38;4975694;28;20467;-72
2022/05/21 04:39:50;;;;;;;4.17;2.80;;;;;;;17.10;62.83;101082.72;4973535;28;20491;-72
2022/05/21 04:42:15;;;;;;;4.73;3.40;;;;;;;17.19;62.75;101079.44;4975456;28;20399;-72
2022/05/21 04:44:40;;;;;;;6.00;3.05;;;;;;;17.31;62.42;101080.81;4975430;28;20407;-72
2022/05/21 04:47:06;;;;;;;3.30;3.07;;;;;;;17.34;62.16;101083.00;4972102;28;20398;-72
2022/05/21 04:49:31;;;;;;;4.17;2.77;;;;;;;17.50;61.58;101089.28;4968704;28;20412;-72
2022/05/21 04:51:57;;;;;;;4.50;2.80;;;;;;;17.43;61.55;101092.31;4971293;28;20436;-72
2022/05/21 04:54:22;;;;;;;4.90;2.90;;;;;;;17.31;62.15;101088.22;4963847;28;20420;-72
2022/05/21 04:56:48;;;;;;;4.82;2.88;;;;;;;17.20;62.22;101089.28;4971735;28;20450;-72
2022/05/21 04:59:13;;;;;;;2.50;2.27;;;;;;;17.34;61.77;101085.75;4973406;28;21062;-74
2022/05/21 05:01:41;;;;;;;5.10;2.50;;;;;;;17.62;61.00;101085.19;4974194;28;20439;-74
2022/05/21 05:04:07;;;;;;;2.63;2.38;;;;;;;17.67;60.60;101086.28;4969273;28;20431;-74
2022/05/21 05:06:33;;;;;;;3.17;2.38;;;;;;;17.59;60.42;101087.66;4973117;28;20891;-74
2022/05/21 05:08:58;;;;;;;2.67;2.30;;;;;;;17.44;60.87;101093.97;4968859;28;20402;-74
2022/05/21 05:11:24;;;;;;;3.43;2.10;;;;;;;17.45;60.85;101084.63;4974271;28;20911;-74
2022/05/21 05:13:49;;;;;;;2.87;2.37;;;;;;;17.28;61.10;101095.06;4970488;28;20456;-74
2022/05/21 05:16:15;;;;;;;4.35;2.70;;;;;;;17.21;61.51;101090.94;4967205;28;21292;-74
2022/05/21 05:18:41;;;;;;;4.43;2.00;;;;;;;17.16;61.66;101096.44;4969843;28;20408;-72
2022/05/21 05:21:06;;;;;;;3.30;2.43;;;;;;;17.31;61.47;101093.69;4964994;28;20421;-72
2022/05/21 05:23:31;;;;;;;4.38;2.45;;;;;;;17.51;60.48;101090.94;4974997;28;20446;-72
2022/05/21 05:25:59;;;;;;;3.23;2.60;;;;;;;17.54;60.03;101093.97;4974107;28;20436;-72
2022/05/21 05:28:24;;;;;;;2.63;2.28;;;;;;;17.64;59.91;101093.16;4974617;28;20396;-72
2022/05/21 05:30:50;;;;;;;3.25;2.30;;;;;;;17.59;59.85;101093.13;4973599;28;20973;-72
2022/05/21 05:33:16;;;;;;;3.53;2.57;;;;;;;17.49;60.37;101082.97;4972132;28;20521;-72
2022/05/21 05:35:42;;;;;;;2.20;2.03;;;;;;;17.55;60.19;101089.31;4971250;28;20408;-72
2022/05/21 05:38:09;;;;;;;2.63;2.07;;;;;;;17.57;59.53;101090.69;4969688;28;20405;-72
2022/05/21 05:40:35;;;;;;;2.33;2.13;;;;;;;17.52;59.55;101096.13;4973084;28;20563;-72
2022/05/21 05:43:01;;;;;;;2.42;1.90;;;;;;;17.38;59.15;101103.28;4973594;28;20507;-72
2022/05/21 05:45:26;;;;;;;1.83;1.73;;;;;;;17.47;59.06;101098.06;4974208;28;20851;-72
2022/05/21 05:47:52;;;;;;;5.87;3.20;;;;;;;17.32;59.12;101098.88;4974323;28;20499;-72
2022/05/21 05:50:17;;;;;;;3.50;2.20;;;;;;;17.40;58.93;101098.34;4969986;28;20430;-72
2022/05/21 05:52:42;;;;;;;3.23;2.00;;;;;;;17.23;59.30;101100.53;4971996;28;20456;-72
2022/05/21 05:55:08;;;;;;;3.60;2.10;;;;;;;17.34;59.06;101096.72;4974035;28;20411;-72
2022/05/21 05:57:33;;;;;;;3.17;1.90;;;;;;;17.48;58.67;101095.06;4989153;28;20392;-72
2022/05/21 05:59:59;;;;;;;3.90;2.10;;;;;;;17.49;58.67;101095.84;4973598;28;20891;-72
2022/05/21 06:05:15;;;;;;;1.83;1.73;;;;;;;17.69;58.08;101095.88;4973237;28;20462;-72
2022/05/21 06:08:01;;;;;;;2.47;1.70;;;;;;;17.79;57.64;101112.31;4971443;28;20836;-72
2022/05/21 06:10:31;;;;;;;3.47;1.50;;;;;;;17.96;57.09;101101.84;4978220;28;20490;-72
2022/05/21 06:12:57;;;;;;;1.35;1.30;;;;;;;17.80;57.02;101094.78;4971582;28;20499;-72
2022/05/21 06:15:23;;;;;;;1.75;1.45;;;;;;;17.88;56.68;101102.41;4977588;28;20515;-71
2022/05/21 06:17:50;;;;;;;1.92;1.40;;;;;;;17.85;56.56;101110.41;4975225;28;20503;-71
2022/05/21 06:20:16;;;;;;;1.50;1.30;;;;;;;17.86;56.52;101104.63;4967930;28;20416;-72
2022/05/21 06:22:44;;;;;;;1.20;1.10;;;;;;;18.04;55.86;101097.72;4983614;28;20413;-72
2022/05/21 06:25:11;;;;;;;3.88;1.13;;;;;;;18.14;55.47;101103.19;4972249;28;20454;-73
2022/05/21 06:27:36;;;;;;;3.47;1.13;;;;;;;18.17;55.21;101108.13;4973123;28;20439;-73
2022/05/21 06:30:02;;;;;;;2.27;0.93;;;;;;;18.12;55.15;101113.59;4973401;28;20436;-72
2022/05/21 06:32:27;;;;;;;3.15;0.93;;;;;;;18.13;55.01;101116.09;4980048;28;20408;-72
2022/05/21 06:34:53;;;;;;;4.13;1.33;;;;;;;18.11;54.87;101117.47;4970706;28;20428;-72
2022/05/21 06:37:18;;;;;;;3.17;1.10;;;;;;;18.00;54.79;101122.16;4971363;28;20929;-71
2022/05/21 06:39:43;;;;;;;2.17;0.80;;;;;;;17.87;55.07;101122.72;4966224;28;20450;-72
2022/05/21 06:42:09;;;;;;;1.80;0.88;;;;;;;17.80;55.56;101130.41;4971118;28;20764;-71
2022/05/21 06:44:35;;;;;;;2.10;0.70;;;;;;;17.91;55.26;101115.59;4972127;28;20416;-71
2022/05/21 06:47:01;;;;;;;3.97;1.20;;;;;;;18.07;54.53;101113.63;4965503;28;20745;-71
2022/05/21 06:49:26;;;;;;;2.40;1.10;;;;;;;18.06;54.64;101115.53;4968331;28;20919;-72
2022/05/21 06:51:54;;;;;;;1.88;0.80;;;;;;;18.05;54.85;101116.63;4967033;28;20435;-72
2022/05/21 06:54:20;;;;;;;2.30;0.80;;;;;;;17.95;55.02;101113.09;4967603;28;20459;-72
2022/05/21 06:56:45;;;;;;;2.92;1.52;;;;;;;18.02;54.92;101121.84;4965357;28;20425;-72
2022/05/21 06:59:11;;;;;;;3.23;0.73;;;;;;;18.02;55.00;101108.97;4971239;28;20532;-71
2022/05/21 07:01:36;;;;;;;3.40;0.80;;;;;;;18.02;55.02;101105.41;4973011;28;20396;-72
2022/05/21 07:04:02;;;;;;;3.80;0.80;;;;;;;18.14;54.96;101101.25;4973024;28;20400;-72
2022/05/21 07:09:11;;;;;;;2.03;0.80;;;;;;;18.28;54.36;101095.16;4965302;28;20405;-72
2022/05/21 07:11:37;;;;;;;2.83;0.60;;;;;;;18.19;54.08;101096.84;4969182;28;20467;-72
2022/05/21 07:14:03;;;;;;;2.50;0.77;;;;;;;18.18;53.66;101100.72;4971405;28;20419;-72
2022/05/21 07:16:28;;;;;;;2.47;0.60;;;;;;;18.17;53.73;101110.84;4968024;28;20900;-71
2022/05/21 07:18:54;;;;;;;4.47;0.73;;;;;;;18.15;54.05;101118.53;4969940;28;20422;-72
2022/05/21 07:21:20;;;;;;;2.72;1.00;;;;;;;18.14;53.28;101116.91;4968960;28;20418;-71
2022/05/21 07:23:46;;;;;;;3.20;0.93;;;;;;;18.13;52.67;101120.75;4965851;28;20408;-71
2022/05/21 07:26:13;;;;;;;2.67;0.60;;;;;;;18.21;52.08;101122.09;4967595;28;20912;-71
2022/05/21 07:28:38;;;;;;;1.65;0.60;;;;;;;18.12;52.32;101122.66;4968150;28;20408;-71
2022/05/21 07:31:04;;;;;;;2.50;0.60;;;;;;;18.15;51.87;101118.53;4965811;28;20478;-71
2022/05/21 07:33:30;;;;;;;1.05;0.50;;;;;;;18.25;51.76;101118.50;4970608;28;20428;-75
2022/05/21 07:35:56;;;;;;;2.00;0.40;;;;;;;18.33;51.37;101112.44;4971099;28;20427;-74
2022/05/21 07:38:21;;;;;;;4.20;1.17;;;;;;;18.38;51.44;101112.41;4972278;28;20419;-71
2022/05/21 07:40:48;;;;;;;2.60;0.90;;;;;;;18.48;51.60;101119.78;4965795;28;20496;-71
2022/05/21 07:43:18;;;;;;;3.58;1.10;;;;;;;18.56;51.50;101119.22;4963486;28;20416;-71
2022/05/21 07:45:45;;;;;;;4.18;0.80;;;;;;;18.61;52.14;101113.72;4965893;28;20419;-71
2022/05/21 07:48:13;;;;;;;3.03;0.98;;;;;;;18.69;52.09;101113.13;4978875;28;20779;-72
2022/05/21 07:50:40;;;;;;;3.75;0.90;;;;;;;18.82;51.55;101112.50;4970774;28;20419;-71
2022/05/21 07:53:10;;;;;;;2.25;0.98;;;;;;;18.90;51.33;101111.88;4968414;28;20483;-71
2022/05/21 07:55:36;;;;;;;2.77;1.10;;;;;;;18.93;50.97;101103.13;4961458;28;20919;-72
2022/05/21 07:58:01;;;;;;;4.90;0.77;;;;;;;19.02;50.00;101111.56;4960654;28;20421;-71
2022/05/21 08:00:26;;;;;;;3.70;1.03;;;;;;;18.94;50.98;101112.97;4967195;28;20823;-72
2022/05/21 08:02:51;;;;;;;2.90;0.70;;;;;;;18.89;51.23;101115.75;4972232;28;20427;-73
2022/05/21 08:05:17;;;;;;;2.33;0.80;;;;;;;18.91;51.56;101110.78;4969770;28;20466;-72
2022/05/21 08:07:43;;;;;;;2.42;0.70;;;;;;;18.90;51.20;101106.41;4971450;28;20397;-73
2022/05/21 08:10:09;;;;;;;1.23;0.47;;;;;;;19.03;50.90;101110.47;4971286;28;20903;-73
2022/05/21 08:12:34;;;;;;;2.17;0.70;;;;;;;19.06;50.31;101112.63;4970733;28;20410;-71
2022/05/21 08:14:59;;;;;;;3.25;0.90;;;;;;;18.98;50.88;101114.06;4984725;28;20502;-71
2022/05/21 08:17:25;;;;;;;2.50;0.53;;;;;;;18.98;51.06;101116.78;4968988;28;20399;-71
2022/05/21 08:19:50;;;;;;;2.27;0.70;;;;;;;19.01;50.17;101116.22;4971860;28;20400;-71
2022/05/21 08:27:43;;;;;;;2.97;1.08;;;;;;;19.23;49.81;101112.25;4972142;28;20407;-71
2022/05/21 08:30:09;;;;;;;2.87;0.87;;;;;;;19.20;50.06;101110.84;4971901;28;20411;-71
2022/05/21 08:32:35;;;;;;;3.60;1.00;;;;;;;19.37;48.61;101110.47;4969869;28;20535;-72
2022/05/21 08:35:01;;;;;;;2.10;0.60;;;;;;;19.50;48.29;101107.06;4964352;28;20457;-71
2022/05/21 08:37:27;;;;;;;2.35;0.70;;;;;;;19.57;48.46;101108.41;4967160;28;20472;-71
2022/05/21 08:39:53;;;;;;;0.85;0.50;;;;;;;19.56;48.88;101115.00;4972045;28;20428;-71
2022/05/21 08:42:40;;;;;;;3.87;1.10;;;;;;;19.57;48.16;101105.66;4973347;28;20428;-72
2022/05/21 08:45:24;;;;;;;1.00;0.53;;;;;;;19.59;47.31;101097.13;4975508;28;20871;-71
2022/05/21 08:48:01;;;;;;;1.58;0.65;;;;;;;19.63;47.92;101111.91;4960420;28;20392;-71
2022/05/21 08:50:32;;;;;;;5.18;0.57;;;;;;;19.72;47.40;101104.69;4974559;28;20400;-71
2022/05/21 08:53:28;;;;;;;1.45;0.70;;;;;;;19.80;47.17;101101.28;4977775;28;20410;-72
2022/05/21 08:55:56;;;;;;;5.80;1.10;;;;;;;19.81;47.35;101097.44;4959662;28;20392;-72
2022/05/21 08:58:40;;;;;;;2.83;0.70;;;;;;;19.95;47.04;101103.09;4973727;28;20407;-72
2022/05/21 09:01:08;;;;;;;1.58;0.60;;;;;;;20.07;46.57;101089.72;4974565;28;20400;-72
2022/05/21 09:03:34;;;;;;;2.40;0.95;;;;;;;20.17;46.59;101097.88;4975066;28;20388;-71
2022/05/21 09:06:21;;;;;;;4.27;0.80;;;;;;;20.29;46.48;101090.03;4975266;28;20867;-71
2022/05/21 09:09:02;;;;;;;4.40;1.42;;;;;;;20.33;46.31;101088.34;4974392;28;20399;-71
2022/05/21 09:11:34;;;;;;;4.13;1.10;;;;;;;20.29;46.71;101084.53;4962997;28;20478;-71
2022/05/21 09:14:06;;;;;;;4.75;0.77;;;;;;;20.45;46.54;101079.69;4974740;28;20942;-71
2022/05/21 09:16:55;;;;;;;2.55;1.00;;;;;;;20.63;46.00;101076.94;4975243;28;20732;-72
2022/05/21 09:19:38;;;;;;;3.47;0.73;;;;;;;20.77;45.19;101070.69;4960420;28;20397;-72
2022/05/21 09:22:10;;;;;;;3.07;0.87;;;;;;;20.99;45.63;101063.44;4974774;28;20407;-71
2022/05/21 09:24:44;;;;;;;3.38;0.73;;;;;;;21.13;44.40;101053.34;4966287;28;20465;-71
2022/05/21 09:27:24;;;;;;;2.97;0.90;;;;;;;21.15;44.43;101059.38;4959728;28;20409;-71
2022/05/21 09:29:52;;;;;;;3.70;0.82;;;;;;;21.21;44.37;101062.84;4974714;28;20396;-71
2022/05/21 09:32:21;;;;;;;2.05;0.73;;;;;;;21.35;44.33;101069.22;4973325;28;20400;-71
2022/05/21 09:35:02;;;;;;;1.93;1.10;;;;;;;21.43;43.71;101067.72;4974374;28;20412;-72
2022/05/21 09:37:29;;;;;;;2.70;0.67;;;;;;;21.26;43.50;101054.50;4974635;28;20400;-72
2022/05/21 09:39:54;;;;;;;4.43;1.60;;;;;;;21.48;43.79;101054.66;4974630;28;20401;-71
2022/05/21 09:45:23;;;;;;;2.45;0.90;;;;;;;21.99;44.04;101059.25;4962722;28;20407;-72
2022/05/21 09:48:12;;;;;;;4.60;0.77;;;;;;;22.22;43.23;101067.34;4974273;28;20392;-71
2022/05/21 09:50:45;;;;;;;2.75;1.00;;;;;;;22.45;42.24;101059.13;4974267;28;20507;-72
2022/05/21 09:53:26;;;;;;;3.97;0.55;;;;;;;22.34;42.47;101055.75;4974079;28;20404;-72
2022/05/21 09:56:22;;;;;;;4.70;0.70;;;;;;;22.54;41.77;101047.03;4972927;28;20400;-72
2022/05/21 09:59:06;;;;;;;1.77;0.82;;;;;;;23.29;40.98;101057.44;4963688;28;20488;-71
2022/05/21 10:01:36;;;;;;;4.93;1.00;;;;;;;23.94;38.17;101043.00;4974200;28;20430;-72
2022/05/21 10:04:30;;;;;;;3.13;1.00;;;;;;;24.48;38.15;101045.28;4973872;28;20789;-72
2022/05/21 10:10:58;;;;;;;3.67;0.70;;;;;;;25.40;36.33;101051.47;4969986;28;20428;-72
2022/05/21 10:12:50;;;;;;;1.90;0.55;;;;;;;27.49;31.81;101041.25;4962520;28;20790;-71
2022/05/21 10:15:24;;;;;;;1.67;0.68;;;;;;;28.30;31.38;101025.31;4968158;28;20470;-72
2022/05/21 10:17:57;;;;;;;3.20;0.65;;;;;;;29.06;29.39;101027.22;4973033;28;20799;-72
2022/05/21 10:20:31;;;;;;;1.35;0.50;;;;;;;28.99;29.40;101040.16;4959744;28;20436;-72
2022/05/21 10:23:21;;;;;;;1.40;0.90;;;;;;;27.88;30.78;101037.03;4972782;28;20404;-72
2022/05/21 10:26:01;;;;;;;2.28;0.75;;;;;;;28.69;29.59;101026.53;4962762;28;20827;-72
2022/05/21 10:28:36;;;;;;;3.40;0.80;;;;;;;29.09;29.34;101026.50;4972930;28;20483;-72
2022/05/21 10:31:24;;;;;;;2.60;0.52;;;;;;;29.18;28.38;101029.13;4973490;28;20416;-71
2022/05/21 10:34:11;;;;;;;1.20;0.50;;;;;;;29.29;28.30;101025.50;4970196;28;20422;-71
2022/05/21 10:37:15;;;;;;;2.33;0.50;;;;;;;29.65;27.88;101016.09;4968189;28;20418;-70
2022/05/21 10:40:08;;;;;;;1.02;0.63;;;;;;;29.52;28.63;101020.16;4968892;28;20433;-70
2022/05/21 10:42:48;;;;;;;3.33;0.80;;;;;;;30.67;27.48;101014.16;4963938;28;20403;-70
2022/05/21 10:45:16;;;;;;;1.67;0.70;;;;;;;31.22;26.06;101018.56;4970843;28;20400;-70
2022/05/21 10:48:01;;;;;;;3.33;0.70;;;;;;;31.56;25.53;101020.41;4973257;28;20400;-70
2022/05/21 10:50:31;;;;;;;2.58;0.80;;;;;;;31.52;25.92;101015.91;4971354;28;20816;-70
2022/05/21 10:53:13;;;;;;;3.33;0.60;;;;;;;31.16;24.60;101008.81;4972382;28;20447;-70
2022/05/21 10:55:44;;;;;;;1.92;0.75;;;;;;;30.47;25.82;101015.31;4965048;28;20424;-70
2022/05/21 10:58:22;;;;;;;3.15;0.75;;;;;;;30.23;26.14;101005.19;4971994;28;20454;-70
2022/05/21 11:00:59;;;;;;;1.85;0.90;;;;;;;29.76;26.54;101000.44;4971961;28;20408;-70
2022/05/21 11:03:27;;;;;;;2.07;0.70;;;;;;;30.01;27.66;101003.03;4962293;28;20420;-70
2022/05/21 11:06:07;;;;;;;4.70;0.65;;;;;;;30.78;26.57;100999.25;4971963;28;20965;-71
2022/05/21 11:09:02;;;;;;;2.13;0.43;;;;;;;31.04;25.93;101003.38;4971392;28;20760;-70
2022/05/21 11:11:40;;;;;;;1.45;0.70;;;;;;;30.87;26.30;101004.59;4958593;28;20507;-71
2022/05/21 11:14:21;;;;;;;1.15;0.40;;;;;;;31.22;25.75;100999.72;4964143;28;20814;-70
2022/05/21 11:16:56;;;;;;;1.67;0.68;;;;;;;31.29;25.28;101004.66;4968660;28;20408;-71
2022/05/21 11:19:31;;;;;;;0.38;0.38;;;;;;;30.94;25.95;101010.34;4968414;28;20910;-70
2022/05/21 11:22:09;;;;;;;0.97;0.70;;;;;;;31.36;25.29;101007.59;4971661;28;20400;-70
2022/05/21 11:24:42;;;;;;;1.25;0.40;;;;;;;31.72;24.47;101000.66;4970744;28;20420;-70
2022/05/21 11:27:20;;;;;;;2.05;0.70;;;;;;;31.61;25.27;101008.91;4967320;28;20416;-70
2022/05/21 11:29:59;;;;;;;2.33;0.70;;;;;;;31.04;26.19;101001.41;4959642;28;20487;-71
2022/05/21 11:38:24;;;;;;;1.92;0.60;;;;;;;30.75;25.78;100986.00;4967087;28;20472;-71
2022/05/21 11:43:55;;;;;;;0.68;0.50;;;;;;;31.51;24.32;100989.09;4959095;28;20417;-71
2022/05/21 11:46:34;;;;;;;3.15;0.85;;;;;;;32.06;23.41;100982.84;4984664;28;20525;-70
2022/05/21 11:49:38;;;;;;;1.27;0.50;;;;;;;32.15;23.40;100985.34;4970851;28;20495;-70
2022/05/21 11:52:26;;;;;;;1.60;0.60;;;;;;;31.77;24.46;100980.75;4971836;28;20807;-70
2022/05/21 11:54:54;;;;;;;0.70;0.40;;;;;;;31.72;24.62;100979.06;4952797;28;20854;-71
2022/05/21 11:57:44;;;;;;;1.85;0.40;;;;;;;31.54;24.37;100979.94;4971362;28;20764;-70
2022/05/21 12:00:18;;;;;;;0.95;0.40;;;;;;;31.76;23.91;100982.72;4970915;28;20408;-71
2022/05/21 12:02:58;;;;;;;1.55;0.40;;;;;;;30.97;25.20;100978.84;4972511;28;20891;-70
2022/05/21 12:05:51;;;;;;;1.48;0.50;;;;;;;30.76;25.58;100970.81;4972282;28;20980;-70
2022/05/21 12:08:22;;;;;;;2.45;0.50;;;;;;;30.93;24.94;100979.91;4971768;28;20768;-70
2022/05/21 12:11:01;;;;;;;0.60;0.30;;;;;;;31.11;25.02;100967.94;4966774;28;20429;-70